Whetstone, United Kingdom
Current Conditions -  °F | °C
As of 3:50 PM on Wednesday 28 Jan 2015 (Local Time) from EGWU Reporting Station
Few Clouds Few Clouds  
Wind Chill: 34°   Ceiling: Unl
Heat Index: 43°   Visibility: 6mi
Dew Point: 27°   Wind: 22mph
Humidity: 53%   Direction: 290°WNW
Pressure: 29.59"   Gusts: NA
Location:  51.63°N, 0.16°W
Report Text: EGWU 281550Z 29019KT 9999 FEW030 06/M03 Q1002 NOSIG
Loading
Personal Weather Stations






























Interactive Weather Map New forecast layout! Learn more

10-Day Weather Forecast

Advertisements
Track Severe Weather on mobile